Terminal Aerodrome Forecast
Issued by NWS Central Illinois

Home | Current Version | Previous Version | Text Only | Print | Product List | Glossary On
Versions: 1 2 3 4 5 6 7 8 9 10 11 12 13 14 15 16 17 18 19 20 21 22 23 24 25 26
000
FTUS43 KILX 251238 AAA
TAFPIA
TAF AMD
KPIA 251238Z 2513/2612 34008KT P6SM BKN009
     FM251500 33007KT P6SM BKN015
     FM251700 33007KT P6SM SCT035
     FM260000 VRB04KT P6SM BKN250=

USA.gov is the U.S. government's official web portal to all federal, state and local government web resources and services.